createdAt,value
2022-08-07T00:00:57.263Z,95
2022-08-07T00:02:03.519Z,95.5
2022-08-07T00:03:09.788Z,96
2022-08-07T00:04:16.047Z,96.5
2022-08-07T00:05:22.295Z,97
2022-08-07T00:06:28.550Z,97.5
2022-08-07T00:07:34.807Z,97.5
2022-08-07T00:08:41.149Z,97.5
2022-08-07T00:09:47.501Z,98
2022-08-07T00:10:53.847Z,97.5
2022-08-07T00:12:00.219Z,97
2022-08-07T00:13:06.536Z,97
2022-08-07T00:14:12.866Z,97.5
2022-08-07T00:15:19.208Z,96.5
2022-08-07T00:16:25.560Z,95.5
2022-08-07T00:17:31.891Z,93.5
2022-08-07T00:18:38.246Z,92.5
2022-08-07T00:19:44.580Z,92.5
2022-08-07T00:20:50.946Z,93
2022-08-07T00:21:57.272Z,93
2022-08-07T00:23:03.742Z,93
2022-08-07T00:24:09.140Z,93.5
2022-08-07T00:25:15.402Z,94
2022-08-07T00:26:21.687Z,94.5
2022-08-07T00:27:27.932Z,95.5
2022-08-07T00:28:34.197Z,96
2022-08-07T00:29:40.459Z,96.5
2022-08-07T00:30:46.718Z,97
2022-08-07T00:31:53.006Z,97.5
2022-08-07T00:32:59.250Z,98
2022-08-07T00:34:05.522Z,98
2022-08-07T00:35:11.770Z,98
2022-08-07T00:36:18.060Z,97.5
2022-08-07T00:37:24.317Z,98
2022-08-07T00:38:30.570Z,98
2022-08-07T00:39:36.838Z,98
2022-08-07T00:40:43.102Z,98
2022-08-07T00:41:49.371Z,98.5
2022-08-07T00:42:55.622Z,98.5
2022-08-07T00:44:01.907Z,99
2022-08-07T00:45:08.147Z,99
2022-08-07T00:46:14.420Z,99.5
2022-08-07T00:47:20.695Z,99.5
2022-08-07T00:48:26.962Z,99.5
2022-08-07T00:49:33.198Z,99.5
2022-08-07T00:50:39.464Z,99.5
2022-08-07T00:51:45.803Z,99.5
2022-08-07T00:52:52.149Z,99.5
2022-08-07T00:53:58.483Z,99.5
2022-08-07T00:55:04.841Z,99.5
2022-08-07T00:56:11.183Z,99.5
2022-08-07T00:57:17.544Z,99.5
2022-08-07T00:58:23.875Z,99.5
2022-08-07T00:59:30.212Z,99
2022-08-07T01:00:36.585Z,99.5
2022-08-07T01:01:42.896Z,99.5
2022-08-07T01:02:49.260Z,99.5
2022-08-07T01:03:55.585Z,98.5
2022-08-07T01:05:01.921Z,98
2022-08-07T01:06:08.399Z,97.5
2022-08-07T01:07:14.831Z,98
2022-08-07T01:08:21.307Z,98.5
2022-08-07T01:09:26.702Z,98.5
2022-08-07T01:10:32.975Z,98.5
2022-08-07T01:11:39.237Z,98.5
2022-08-07T01:12:45.483Z,99
2022-08-07T01:13:51.766Z,99.5
2022-08-07T01:14:58.004Z,99.5
2022-08-07T01:16:04.275Z,99.5
2022-08-07T01:17:10.553Z,99.5
2022-08-07T01:18:16.797Z,99.5
2022-08-07T01:19:23.087Z,99
2022-08-07T01:20:29.341Z,99
2022-08-07T01:21:35.591Z,99.5
2022-08-07T01:22:41.862Z,99.5
2022-08-07T01:23:48.138Z,99.5
2022-08-07T01:24:54.402Z,99.5
2022-08-07T01:26:00.696Z,99.5
2022-08-07T01:27:06.933Z,99.5
2022-08-07T01:28:13.227Z,99.5
2022-08-07T01:29:19.465Z,99.5
2022-08-07T01:30:25.727Z,99.5
2022-08-07T01:31:32.006Z,99.5
2022-08-07T01:32:38.283Z,99.5
2022-08-07T01:33:44.541Z,99.5
2022-08-07T01:34:50.818Z,99.5
2022-08-07T01:35:57.074Z,99.5
2022-08-07T01:37:03.422Z,99.5
2022-08-07T01:38:09.766Z,99.5
2022-08-07T01:39:16.123Z,99.5
2022-08-07T01:40:22.454Z,99.5
2022-08-07T01:41:28.801Z,99.5
2022-08-07T01:42:35.133Z,99.5
2022-08-07T01:43:41.475Z,99.5
2022-08-07T01:44:47.840Z,99.5
2022-08-07T01:45:54.167Z,99.5
2022-08-07T01:47:00.503Z,99.5
2022-08-07T01:48:06.852Z,99.5
2022-08-07T01:49:13.226Z,99.5
2022-08-07T01:50:19.556Z,99.5
2022-08-07T01:51:26.014Z,99.5
2022-08-07T01:52:31.444Z,99.5
2022-08-07T01:53:37.690Z,99.5
2022-08-07T01:54:43.961Z,99.5
2022-08-07T01:55:50.224Z,99.5
2022-08-07T01:56:56.498Z,99.5
2022-08-07T01:58:02.770Z,99.5
2022-08-07T01:59:09.063Z,99.5
2022-08-07T02:00:15.301Z,99.5
2022-08-07T02:01:21.575Z,99.5
2022-08-07T02:02:27.863Z,99.5
2022-08-07T02:03:42.648Z,99.5
2022-08-07T02:04:40.397Z,99.5
2022-08-07T02:05:46.653Z,99.5
2022-08-07T02:06:52.914Z,99.5
2022-08-07T02:07:59.186Z,99.5
2022-08-07T02:09:05.469Z,99.5
2022-08-07T02:10:11.745Z,99.5
2022-08-07T02:11:18.001Z,99.5
2022-08-07T02:12:24.260Z,99.5
2022-08-07T02:13:30.543Z,99.5
2022-08-07T02:14:36.802Z,99.5
2022-08-07T02:15:43.076Z,99.5
2022-08-07T02:16:49.346Z,99.5
2022-08-07T02:17:55.626Z,99.5
2022-08-07T02:19:01.909Z,99.5
2022-08-07T02:20:08.263Z,99.5
2022-08-07T02:21:14.628Z,99.5
2022-08-07T02:22:20.994Z,99.5
2022-08-07T02:23:27.316Z,99.5
2022-08-07T02:24:33.672Z,99.5
2022-08-07T02:25:40.012Z,99.5
2022-08-07T02:26:46.386Z,99.5
2022-08-07T02:27:52.707Z,99.5
2022-08-07T02:28:59.072Z,99.5
2022-08-07T02:30:05.404Z,99.5
2022-08-07T02:31:11.772Z,99.5
2022-08-07T02:32:18.123Z,99.5
2022-08-07T02:33:24.479Z,99.5
2022-08-07T02:34:30.957Z,99.5
2022-08-07T02:35:36.359Z,99.5
2022-08-07T02:36:42.666Z,99.5
2022-08-07T02:37:48.902Z,99.5
2022-08-07T02:38:55.195Z,99.5
2022-08-07T02:40:01.445Z,99.5
2022-08-07T02:41:07.717Z,99.5
2022-08-07T02:42:13.989Z,99.5
2022-08-07T02:43:20.276Z,99.5
2022-08-07T02:44:26.536Z,99.5
2022-08-07T02:45:32.802Z,99.5
2022-08-07T02:46:39.071Z,99.5
2022-08-07T02:47:45.371Z,99.5
2022-08-07T02:48:51.612Z,99.5
2022-08-07T02:49:57.896Z,99.5
2022-08-07T02:51:04.155Z,99.5
2022-08-07T02:52:10.426Z,99.5
2022-08-07T02:53:16.721Z,99.5
2022-08-07T02:54:22.974Z,99.5
2022-08-07T02:55:29.274Z,99.5
2022-08-07T02:56:35.561Z,99.5
2022-08-07T02:57:41.804Z,99.5
2022-08-07T02:58:48.071Z,99.5
2022-08-07T02:59:54.352Z,99.5
2022-08-07T03:01:00.620Z,99.5
2022-08-07T03:02:06.900Z,99.5
2022-08-07T03:03:13.258Z,99.5
2022-08-07T03:04:19.605Z,99.5
2022-08-07T03:05:29.085Z,99.5
2022-08-07T03:06:32.321Z,99.5
2022-08-07T03:07:38.666Z,99.5
2022-08-07T03:08:45.047Z,99.5
2022-08-07T03:09:51.373Z,99.5
2022-08-07T03:10:57.725Z,99.5
2022-08-07T03:12:04.077Z,99.5
2022-08-07T03:13:10.429Z,99.5
2022-08-07T03:14:16.780Z,99.5
2022-08-07T03:15:23.134Z,99.5
2022-08-07T03:16:29.480Z,99.5
2022-08-07T03:17:35.981Z,99.5
2022-08-07T03:18:41.383Z,99.5
2022-08-07T03:19:47.639Z,99.5
2022-08-07T03:20:53.910Z,99.5
2022-08-07T03:22:00.206Z,99.5
2022-08-07T03:23:06.469Z,99.5
2022-08-07T03:24:12.719Z,99.5
2022-08-07T03:25:19.000Z,99.5
2022-08-07T03:26:25.276Z,99.5
2022-08-07T03:27:31.539Z,99.5
2022-08-07T03:28:37.832Z,99.5
2022-08-07T03:29:44.090Z,99.5
2022-08-07T03:30:50.385Z,99.5
2022-08-07T03:31:56.629Z,99.5
2022-08-07T03:33:02.901Z,99.5
2022-08-07T03:34:09.200Z,99.5
2022-08-07T03:35:15.472Z,99.5
2022-08-07T03:36:21.728Z,99.5
2022-08-07T03:37:28.003Z,99.5
2022-08-07T03:38:34.284Z,99.5
2022-08-07T03:39:40.556Z,99.5
2022-08-07T03:40:46.833Z,99.5
2022-08-07T03:41:53.105Z,99.5
2022-08-07T03:42:59.398Z,99.5
2022-08-07T03:44:05.693Z,99.5
2022-08-07T03:45:11.942Z,99.5
2022-08-07T03:46:18.307Z,99.5
2022-08-07T03:47:24.671Z,99.5
2022-08-07T03:48:31.014Z,99.5
2022-08-07T03:49:37.372Z,99.5
2022-08-07T03:50:43.726Z,99.5
2022-08-07T03:51:50.095Z,99.5
2022-08-07T03:52:56.461Z,99.5
2022-08-07T03:54:02.789Z,99.5
2022-08-07T03:55:09.146Z,99.5
2022-08-07T03:56:15.522Z,99.5
2022-08-07T03:57:21.870Z,99.5
2022-08-07T03:58:28.223Z,99.5
2022-08-07T03:59:34.558Z,99.5
2022-08-07T04:00:41.042Z,99.5
2022-08-07T04:01:47.512Z,99.5
2022-08-07T04:02:53.983Z,99.5
2022-08-07T04:04:00.456Z,99.5
2022-08-07T04:05:06.936Z,99.5
2022-08-07T04:06:13.405Z,99.5
2022-08-07T04:07:19.904Z,99.5
2022-08-07T04:08:26.384Z,99.5
2022-08-07T04:09:32.862Z,99.5
2022-08-07T04:10:39.325Z,99.5
2022-08-07T04:11:44.726Z,99.5
2022-08-07T04:12:51.003Z,99.5
2022-08-07T04:13:57.280Z,99.5
2022-08-07T04:15:03.539Z,99.5
2022-08-07T04:16:09.825Z,99.5
2022-08-07T04:17:16.122Z,99.5
2022-08-07T04:18:22.369Z,99.5
2022-08-07T04:19:28.643Z,99.5
2022-08-07T04:20:34.927Z,99.5
2022-08-07T04:21:41.178Z,99.5
2022-08-07T04:22:47.454Z,99.5
2022-08-07T04:23:53.730Z,99.5
2022-08-07T04:25:00.023Z,99.5
2022-08-07T04:26:06.271Z,99.5
2022-08-07T04:27:12.535Z,99.5
2022-08-07T04:28:18.817Z,99.5
2022-08-07T04:29:25.075Z,99.5
2022-08-07T04:30:31.355Z,99.5
2022-08-07T04:31:37.616Z,99.5
2022-08-07T04:32:43.890Z,99.5
2022-08-07T04:33:50.167Z,99.5
2022-08-07T04:34:56.451Z,99.5
2022-08-07T04:36:02.709Z,99.5
2022-08-07T04:37:08.972Z,99.5
2022-08-07T04:38:15.258Z,99.5
2022-08-07T04:39:21.600Z,99.5
2022-08-07T04:40:27.945Z,99.5
2022-08-07T04:41:34.285Z,99.5
2022-08-07T04:42:40.753Z,99.5
2022-08-07T04:43:46.982Z,99.5
2022-08-07T04:44:53.343Z,99.5
2022-08-07T04:45:59.683Z,99.5
2022-08-07T04:47:06.049Z,99
2022-08-07T04:48:12.391Z,99
2022-08-07T04:49:18.739Z,98.5
2022-08-07T04:50:25.070Z,98
2022-08-07T04:51:31.408Z,98
2022-08-07T04:52:37.765Z,97.5
2022-08-07T04:53:44.232Z,95
2022-08-07T04:54:49.641Z,90.5
2022-08-07T04:55:55.885Z,86
2022-08-07T04:57:02.138Z,79.5
2022-08-07T04:58:08.392Z,77.5
2022-08-07T04:59:14.645Z,75.5
2022-08-07T05:00:22.540Z,73
2022-08-07T05:01:27.095Z,73
2022-08-07T05:02:33.366Z,76
2022-08-07T05:03:39.581Z,77
2022-08-07T05:04:45.804Z,79
2022-08-07T05:05:52.002Z,79
2022-08-07T05:06:58.239Z,77.5
2022-08-07T05:08:04.454Z,78.5
2022-08-07T05:09:10.687Z,82
2022-08-07T05:10:16.900Z,84
2022-08-07T05:11:23.118Z,84.5
2022-08-07T05:12:29.336Z,85.5
2022-08-07T05:13:35.564Z,86
2022-08-07T05:14:41.759Z,84.5
2022-08-07T05:15:47.978Z,82
2022-08-07T05:16:54.244Z,78.5
2022-08-07T05:18:00.397Z,72.5
2022-08-07T05:19:06.599Z,65.5
2022-08-07T05:20:11.819Z,64
2022-08-07T05:21:17.005Z,63.5
2022-08-07T05:22:22.210Z,63
2022-08-07T05:23:27.391Z,60.5
2022-08-07T05:24:32.593Z,58.5
2022-08-07T05:25:37.745Z,58.5
2022-08-07T05:26:43.898Z,58.5
2022-08-07T05:27:50.024Z,56
2022-08-07T05:28:56.187Z,58
2022-08-07T05:30:02.286Z,56.5
2022-08-07T05:31:08.391Z,56
2022-08-07T05:32:14.502Z,54
2022-08-07T05:33:20.612Z,54.5
2022-08-07T05:34:26.691Z,56.5
2022-08-07T05:35:32.793Z,56
2022-08-07T05:36:38.867Z,53.5
2022-08-07T05:37:44.933Z,53
2022-08-07T05:38:51.010Z,52.5
2022-08-07T05:39:57.071Z,53
2022-08-07T05:41:03.151Z,52
2022-08-07T05:42:09.185Z,51
2022-08-07T05:43:15.238Z,51
2022-08-07T05:44:21.298Z,53.5
2022-08-07T05:45:27.339Z,51
2022-08-07T05:46:33.396Z,50.5
2022-08-07T05:47:39.420Z,50.5
2022-08-07T05:48:45.446Z,50.5
2022-08-07T05:49:51.482Z,51
2022-08-07T05:50:57.520Z,51.5
2022-08-07T05:52:03.534Z,52.5
2022-08-07T05:53:09.532Z,52.5
2022-08-07T05:54:15.555Z,51.5
2022-08-07T05:55:21.559Z,52
2022-08-07T05:56:27.558Z,50.5
2022-08-07T05:57:33.582Z,49.5
2022-08-07T05:58:39.564Z,48
2022-08-07T05:59:45.535Z,46
2022-08-07T06:00:51.549Z,48.5
2022-08-07T06:01:57.528Z,49.5
2022-08-07T06:03:03.516Z,48.5
2022-08-07T06:04:09.504Z,49
2022-08-07T06:05:15.493Z,47
2022-08-07T06:06:21.536Z,46
2022-08-07T06:07:27.587Z,45
2022-08-07T06:08:33.643Z,46.5
2022-08-07T06:09:39.711Z,47.5
2022-08-07T06:10:45.764Z,46.5
2022-08-07T06:11:51.807Z,46
2022-08-07T06:12:57.842Z,48
2022-08-07T06:14:03.864Z,45.5
2022-08-07T06:15:09.905Z,46.5
2022-08-07T06:16:15.959Z,46
2022-08-07T06:17:21.995Z,46
2022-08-07T06:18:28.023Z,48
2022-08-07T06:19:34.047Z,48.5
2022-08-07T06:20:40.211Z,48.5
2022-08-07T06:21:46.365Z,48
2022-08-07T06:22:52.513Z,46
2022-08-07T06:23:58.660Z,44.5
2022-08-07T06:25:04.819Z,44.5
2022-08-07T06:26:10.958Z,44.5
2022-08-07T06:27:17.111Z,43.5
2022-08-07T06:28:23.247Z,45.5
2022-08-07T06:29:29.400Z,47
2022-08-07T06:30:35.554Z,45.5
2022-08-07T06:31:41.678Z,43.5
2022-08-07T06:32:47.845Z,45
2022-08-07T06:33:53.965Z,45
2022-08-07T06:36:28.683Z,45
2022-08-07T06:37:33.957Z,42
2022-08-07T06:38:39.909Z,42.5
2022-08-07T06:39:45.829Z,39.5
2022-08-07T06:40:51.771Z,38.5
2022-08-07T06:41:57.684Z,40
2022-08-07T06:43:03.621Z,40
2022-08-07T06:44:09.565Z,40.5
2022-08-07T06:45:15.470Z,40
2022-08-07T06:46:21.393Z,42.5
2022-08-07T06:47:27.330Z,44
2022-08-07T06:48:33.234Z,44.5
2022-08-07T06:49:39.168Z,43.5
2022-08-07T06:50:45.088Z,44.5
2022-08-07T06:51:51.017Z,44
2022-08-07T06:52:56.927Z,43
2022-08-07T06:54:02.851Z,43.5
2022-08-07T06:55:08.770Z,43.5
2022-08-07T06:56:14.704Z,42
2022-08-07T06:57:20.615Z,41
2022-08-07T06:58:26.566Z,38.5
2022-08-07T06:59:32.454Z,38.5
2022-08-07T07:00:38.369Z,41
2022-08-07T07:01:44.281Z,42
2022-08-07T07:02:50.198Z,41.5
2022-08-07T07:03:56.122Z,41
2022-08-07T07:05:02.106Z,41.5
2022-08-07T07:06:08.093Z,42
2022-08-07T07:07:14.086Z,40.5
2022-08-07T07:08:20.136Z,40.5
2022-08-07T07:09:26.075Z,40.5
2022-08-07T07:10:32.060Z,38
2022-08-07T07:11:38.041Z,39.5
2022-08-07T07:12:44.035Z,38.5
2022-08-07T07:13:50.032Z,38.5
2022-08-07T07:14:56.010Z,38
2022-08-07T07:16:01.984Z,36
2022-08-07T07:17:07.963Z,35.5
2022-08-07T07:18:13.959Z,34
2022-08-07T07:19:20.055Z,33.5
2022-08-07T07:20:26.171Z,33
2022-08-07T07:21:32.274Z,35
2022-08-07T07:22:38.377Z,34
2022-08-07T07:23:44.476Z,33
2022-08-07T07:24:50.578Z,33
2022-08-07T07:25:56.697Z,34
2022-08-07T07:27:02.791Z,37
2022-08-07T07:28:08.895Z,37
2022-08-07T07:29:15.013Z,37
2022-08-07T07:30:21.114Z,36.5
2022-08-07T07:31:27.228Z,38.5
2022-08-07T07:32:33.339Z,38
2022-08-07T07:33:39.701Z,39
2022-08-07T07:34:46.061Z,40.5
2022-08-07T07:35:51.309Z,40.5
2022-08-07T07:36:57.220Z,41
2022-08-07T07:38:03.157Z,40.5
2022-08-07T07:39:09.065Z,38.5
2022-08-07T07:40:14.985Z,36.5
2022-08-07T07:41:20.913Z,36
2022-08-07T07:42:26.821Z,37
2022-08-07T07:43:32.749Z,37.5
2022-08-07T07:44:38.680Z,38.5
2022-08-07T07:45:44.592Z,37.5
2022-08-07T07:46:50.513Z,38.5
2022-08-07T07:47:56.425Z,39
2022-08-07T07:49:02.367Z,37.5
2022-08-07T07:50:08.281Z,36.5
2022-08-07T07:51:14.191Z,34.5
2022-08-07T07:52:20.127Z,34
2022-08-07T07:53:26.036Z,32
2022-08-07T07:54:31.971Z,31.5
2022-08-07T07:55:37.868Z,32
2022-08-07T07:56:43.844Z,32
2022-08-07T07:57:49.708Z,31.5
2022-08-07T07:58:55.638Z,30
2022-08-07T08:00:01.531Z,31
2022-08-07T08:01:07.438Z,30.5
2022-08-07T08:02:13.338Z,31
2022-08-07T08:03:19.327Z,30.5
2022-08-07T08:04:25.317Z,32
2022-08-07T08:05:31.319Z,31.5
2022-08-07T08:06:37.293Z,31
2022-08-07T08:07:43.283Z,31.5
2022-08-07T08:08:49.276Z,33.5
2022-08-07T08:09:55.261Z,31
2022-08-07T08:11:01.237Z,30.5
2022-08-07T08:12:07.215Z,30
2022-08-07T08:13:13.205Z,31.5
2022-08-07T08:14:19.209Z,33.5
2022-08-07T08:15:25.164Z,34.5
2022-08-07T08:16:31.150Z,33
2022-08-07T08:17:37.272Z,34
2022-08-07T08:18:43.366Z,34
2022-08-07T08:19:49.463Z,32.5
2022-08-07T08:20:55.589Z,33.5
2022-08-07T08:22:01.685Z,34.5
2022-08-07T08:23:07.854Z,33
2022-08-07T08:24:13.912Z,32
2022-08-07T08:25:20.026Z,32.5
2022-08-07T08:26:26.142Z,31.5
2022-08-07T08:27:32.262Z,27
2022-08-07T08:28:38.372Z,27
2022-08-07T08:29:44.495Z,28.5
2022-08-07T08:30:50.609Z,30
2022-08-07T08:33:25.254Z,29.5
2022-08-07T08:34:30.559Z,29.5
2022-08-07T08:35:36.434Z,29.5
2022-08-07T08:36:42.337Z,31
2022-08-07T08:37:48.235Z,32
2022-08-07T08:38:54.148Z,32.5
2022-08-07T08:40:00.074Z,30
2022-08-07T08:41:05.958Z,30.5
2022-08-07T08:42:11.869Z,30
2022-08-07T08:43:17.781Z,29.5
2022-08-07T08:44:23.698Z,30
2022-08-07T08:45:29.637Z,29
2022-08-07T08:46:35.547Z,29
2022-08-07T08:47:41.440Z,27.5
2022-08-07T08:48:47.371Z,28
2022-08-07T08:49:53.270Z,29.5
2022-08-07T08:50:59.235Z,28
2022-08-07T08:52:05.111Z,28.5
2022-08-07T08:53:11.023Z,32
2022-08-07T08:54:16.918Z,30
2022-08-07T08:55:22.838Z,29.5
2022-08-07T08:56:28.749Z,29.5
2022-08-07T08:57:34.655Z,29
2022-08-07T08:58:40.568Z,28.5
2022-08-07T08:59:46.465Z,28.5
2022-08-07T09:00:52.389Z,29.5
2022-08-07T09:01:58.375Z,30
2022-08-07T09:03:04.361Z,30.5
2022-08-07T09:04:10.368Z,28
2022-08-07T09:05:16.348Z,28
2022-08-07T09:06:22.339Z,26.5
2022-08-07T09:07:28.339Z,26.5
2022-08-07T09:08:34.324Z,25.5
2022-08-07T09:09:40.339Z,27
2022-08-07T09:10:46.318Z,26
2022-08-07T09:11:52.290Z,26
2022-08-07T09:12:58.291Z,26
2022-08-07T09:14:04.282Z,29.5
2022-08-07T09:15:10.260Z,29
2022-08-07T09:16:16.395Z,30
2022-08-07T09:17:22.531Z,29
2022-08-07T09:18:28.625Z,29.5
2022-08-07T09:19:34.737Z,27
2022-08-07T09:20:40.831Z,26.5
2022-08-07T09:21:46.949Z,28.5
2022-08-07T09:22:53.073Z,29.5
2022-08-07T09:23:59.182Z,30
2022-08-07T09:25:05.301Z,27.5
2022-08-07T09:26:11.417Z,27
2022-08-07T09:27:17.556Z,29
2022-08-07T09:28:23.657Z,29
2022-08-07T09:29:29.776Z,28
2022-08-07T09:32:26.423Z,27.5
2022-08-07T09:33:31.672Z,30
2022-08-07T09:34:37.606Z,29.5
2022-08-07T09:35:43.534Z,31
2022-08-07T09:36:49.481Z,30
2022-08-07T09:37:55.378Z,31.5
2022-08-07T09:39:01.310Z,32
2022-08-07T09:40:07.262Z,34.5
2022-08-07T09:41:13.191Z,37
2022-08-07T09:42:19.126Z,34
2022-08-07T09:43:25.073Z,32
2022-08-07T09:44:31.015Z,28.5
2022-08-07T09:45:36.969Z,30
2022-08-07T09:46:42.932Z,29.5
2022-08-07T09:47:48.881Z,28.5
2022-08-07T09:48:54.850Z,28
2022-08-07T09:50:00.812Z,28
2022-08-07T09:51:06.768Z,28
2022-08-07T09:52:12.741Z,29.5
2022-08-07T09:53:18.691Z,27
2022-08-07T09:54:24.622Z,27
2022-08-07T09:55:30.578Z,28
2022-08-07T09:56:36.547Z,28
2022-08-07T09:57:42.512Z,27
2022-08-07T09:58:48.464Z,27
2022-08-07T09:59:54.423Z,26.5
2022-08-07T10:01:00.504Z,26.5
2022-08-07T10:02:06.506Z,26
2022-08-07T10:03:12.539Z,29
2022-08-07T10:04:18.579Z,26.5
2022-08-07T10:05:24.605Z,26
2022-08-07T10:06:30.650Z,26.5
2022-08-07T10:07:36.687Z,27
2022-08-07T10:08:42.721Z,26.5
2022-08-07T10:09:48.755Z,25
2022-08-07T10:10:54.837Z,26
2022-08-07T10:12:00.823Z,25.5
2022-08-07T10:13:06.881Z,27
2022-08-07T10:14:12.938Z,27.5
2022-08-07T10:15:19.086Z,29.5
2022-08-07T10:16:25.222Z,28.5
2022-08-07T10:17:31.382Z,26
2022-08-07T10:18:37.528Z,27.5
2022-08-07T10:19:43.714Z,27
2022-08-07T10:20:49.875Z,26
2022-08-07T10:21:56.029Z,26
2022-08-07T10:23:02.195Z,26.5
2022-08-07T10:24:08.359Z,27
2022-08-07T10:25:14.541Z,29.5
2022-08-07T10:26:20.698Z,29.5
2022-08-07T10:27:26.877Z,31
2022-08-07T10:28:33.040Z,30
2022-08-07T10:31:07.889Z,34
2022-08-07T10:32:13.187Z,31.5
2022-08-07T10:33:19.175Z,32.5
2022-08-07T10:34:25.185Z,33.5
2022-08-07T10:35:31.174Z,33.5
2022-08-07T10:36:37.203Z,36
2022-08-07T10:37:43.183Z,35.5
2022-08-07T10:38:49.212Z,38
2022-08-07T10:39:55.236Z,38
2022-08-07T10:41:01.295Z,38
2022-08-07T10:42:07.286Z,37.5
2022-08-07T10:43:13.317Z,38.5
2022-08-07T10:44:19.345Z,39.5
2022-08-07T10:45:25.386Z,39
2022-08-07T10:46:31.463Z,39
2022-08-07T10:47:37.482Z,37
2022-08-07T10:48:43.518Z,33
2022-08-07T10:49:49.562Z,30
2022-08-07T10:50:55.607Z,32.5
2022-08-07T10:52:01.646Z,30.5
2022-08-07T10:53:07.673Z,31.5
2022-08-07T10:54:13.742Z,30
2022-08-07T10:55:19.766Z,29
2022-08-07T10:56:25.828Z,30
2022-08-07T10:57:31.854Z,31.5
2022-08-07T10:58:37.909Z,33
2022-08-07T10:59:44.021Z,34.5
2022-08-07T11:00:50.155Z,33.5
2022-08-07T11:01:56.318Z,34
2022-08-07T11:03:02.396Z,34.5
2022-08-07T11:04:08.492Z,35.5
2022-08-07T11:05:14.635Z,37.5
2022-08-07T11:06:20.745Z,36.5
2022-08-07T11:07:26.895Z,36.5
2022-08-07T11:08:33.035Z,36.5
2022-08-07T11:09:39.156Z,36
2022-08-07T11:10:45.286Z,34.5
2022-08-07T11:11:51.430Z,32
2022-08-07T11:12:57.555Z,30
2022-08-07T11:14:03.830Z,29.5
2022-08-07T11:15:09.039Z,29
2022-08-07T11:16:15.114Z,28.5
2022-08-07T11:17:21.145Z,27
2022-08-07T11:18:27.213Z,26.5
2022-08-07T11:19:33.256Z,27
2022-08-07T11:20:39.306Z,27.5
2022-08-07T11:21:45.365Z,27
2022-08-07T11:22:51.416Z,27.5
2022-08-07T11:23:57.481Z,27
2022-08-07T11:25:03.514Z,26.5
2022-08-07T11:26:09.552Z,26.5
2022-08-07T11:27:15.607Z,26
2022-08-07T11:28:21.643Z,26.5
2022-08-07T11:29:27.685Z,26
2022-08-07T11:30:33.718Z,27.5
2022-08-07T11:31:39.754Z,29
2022-08-07T11:32:45.795Z,30.5
2022-08-07T11:33:51.827Z,30.5
2022-08-07T11:34:57.853Z,31.5
2022-08-07T11:36:03.871Z,31.5
2022-08-07T11:37:09.909Z,31.5
2022-08-07T11:38:15.968Z,31
2022-08-07T11:39:22.006Z,31.5
2022-08-07T11:40:28.040Z,30
2022-08-07T11:41:34.068Z,29.5
2022-08-07T11:42:40.196Z,28.5
2022-08-07T11:43:46.288Z,27
2022-08-07T11:44:52.410Z,27.5
2022-08-07T11:45:58.514Z,25.5
2022-08-07T11:47:04.638Z,26.5
2022-08-07T11:48:10.725Z,24.5
2022-08-07T11:49:16.824Z,26
2022-08-07T11:50:22.929Z,25.5
2022-08-07T11:51:29.043Z,24
2022-08-07T11:52:35.138Z,23.5
2022-08-07T11:53:41.234Z,25
2022-08-07T11:54:47.606Z,27.5
2022-08-07T11:55:53.429Z,27
2022-08-07T11:56:59.667Z,27
2022-08-07T11:58:05.863Z,26.5
2022-08-07T11:59:12.081Z,27.5
2022-08-07T12:00:18.545Z,28.5
2022-08-07T12:01:24.543Z,28.5
2022-08-07T12:02:30.705Z,29
2022-08-07T12:03:36.904Z,29
2022-08-07T12:04:43.166Z,29
2022-08-07T12:05:49.380Z,31
2022-08-07T12:06:55.552Z,32.5
2022-08-07T12:08:01.757Z,30.5
2022-08-07T12:09:07.977Z,31
2022-08-07T12:10:14.242Z,31.5
2022-08-07T12:13:11.130Z,29.5
2022-08-07T12:14:16.487Z,28
2022-08-07T12:15:22.502Z,28
2022-08-07T12:16:28.523Z,28.5
2022-08-07T12:17:34.548Z,29.5
2022-08-07T12:18:40.584Z,30.5
2022-08-07T12:19:46.605Z,27
2022-08-07T12:20:52.639Z,27
2022-08-07T12:21:58.664Z,27.5
2022-08-07T12:23:04.691Z,26.5
2022-08-07T12:24:10.723Z,27
2022-08-07T12:25:16.759Z,27.5
2022-08-07T12:26:22.783Z,26.5
2022-08-07T12:27:28.785Z,26.5
2022-08-07T12:28:34.812Z,27.5
2022-08-07T12:29:40.838Z,27
2022-08-07T12:30:46.851Z,27
2022-08-07T12:31:52.887Z,27.5
2022-08-07T12:32:58.913Z,26.5
2022-08-07T12:34:04.918Z,25
2022-08-07T12:35:10.963Z,25
2022-08-07T12:36:16.962Z,25.5
2022-08-07T12:37:22.979Z,24
2022-08-07T12:38:28.987Z,24
2022-08-07T12:39:35.005Z,25.5
2022-08-07T12:40:41.030Z,25.5
2022-08-07T12:41:47.106Z,26
2022-08-07T12:42:53.206Z,25
2022-08-07T12:43:59.301Z,25.5
2022-08-07T12:45:05.368Z,25
2022-08-07T12:46:11.468Z,26.5
2022-08-07T12:47:17.558Z,26
2022-08-07T12:48:23.635Z,25
2022-08-07T12:49:29.721Z,25.5
2022-08-07T12:50:35.814Z,26
2022-08-07T12:51:41.890Z,28
2022-08-07T12:52:47.979Z,27
2022-08-07T12:53:54.064Z,27.5
2022-08-07T12:55:00.151Z,26.5
2022-08-07T12:56:06.349Z,27.5
2022-08-07T12:57:12.586Z,28.5
2022-08-07T12:58:18.777Z,27
2022-08-07T12:59:24.963Z,27.5
2022-08-07T13:00:31.177Z,28
2022-08-07T13:01:37.389Z,27.5
2022-08-07T13:02:43.596Z,30
2022-08-07T13:03:49.800Z,30.5
2022-08-07T13:04:56.014Z,33.5
2022-08-07T13:06:02.236Z,30
2022-08-07T13:07:08.439Z,28.5
2022-08-07T13:08:14.662Z,28.5
2022-08-07T13:09:20.893Z,29.5
2022-08-07T13:11:55.785Z,29
2022-08-07T13:13:01.178Z,29
2022-08-07T13:14:07.177Z,29
2022-08-07T13:15:13.184Z,27
2022-08-07T13:16:19.207Z,26.5
2022-08-07T13:17:25.231Z,28
2022-08-07T13:18:31.256Z,27
2022-08-07T13:19:37.259Z,26.5
2022-08-07T13:20:43.294Z,27.5
2022-08-07T13:21:49.288Z,28.5
2022-08-07T13:22:55.310Z,29.5
2022-08-07T13:24:01.326Z,29.5
2022-08-07T13:25:07.365Z,31.5
2022-08-07T13:26:13.363Z,31
2022-08-07T13:27:19.420Z,30
2022-08-07T13:28:25.406Z,30.5
2022-08-07T13:29:31.429Z,30
2022-08-07T13:30:37.483Z,30.5
2022-08-07T13:31:43.465Z,31.5
2022-08-07T13:32:49.508Z,32.5
2022-08-07T13:33:55.527Z,32
2022-08-07T13:35:01.565Z,31.5
2022-08-07T13:36:07.607Z,32
2022-08-07T13:37:13.662Z,31
2022-08-07T13:38:19.671Z,32
2022-08-07T13:39:25.705Z,32
2022-08-07T13:40:31.831Z,32
2022-08-07T13:41:37.965Z,31.5
2022-08-07T13:42:44.071Z,32
2022-08-07T13:43:50.185Z,33.5
2022-08-07T13:44:56.311Z,34
2022-08-07T13:46:02.423Z,32.5
2022-08-07T13:47:08.551Z,33
2022-08-07T13:48:14.676Z,33.5
2022-08-07T13:49:20.815Z,33.5
2022-08-07T13:50:26.923Z,33.5
2022-08-07T13:51:33.023Z,33.5
2022-08-07T13:52:39.152Z,33.5
2022-08-07T13:53:45.282Z,32
2022-08-07T13:54:51.539Z,32.5
2022-08-07T13:55:56.766Z,33
2022-08-07T13:57:02.798Z,32
2022-08-07T13:58:08.863Z,32
2022-08-07T13:59:14.924Z,30.5
2022-08-07T14:00:20.975Z,31.5
2022-08-07T14:01:27.019Z,31.5
2022-08-07T14:02:33.070Z,31.5
2022-08-07T14:03:39.126Z,31
2022-08-07T14:04:45.183Z,30
2022-08-07T14:05:51.230Z,31
2022-08-07T14:06:57.279Z,31
2022-08-07T14:08:03.334Z,31.5
2022-08-07T14:09:09.384Z,33
2022-08-07T14:10:15.468Z,33.5
2022-08-07T14:11:21.495Z,35
2022-08-07T14:12:27.550Z,33.5
2022-08-07T14:13:33.619Z,31
2022-08-07T14:14:39.664Z,31.5
2022-08-07T14:15:45.799Z,32.5
2022-08-07T14:16:51.781Z,31.5
2022-08-07T14:17:57.845Z,31
2022-08-07T14:19:03.930Z,30
2022-08-07T14:20:09.948Z,30
2022-08-07T14:21:16.014Z,30
2022-08-07T14:22:22.058Z,31
2022-08-07T14:23:28.195Z,31.5
2022-08-07T14:24:34.344Z,32.5
2022-08-07T14:25:40.450Z,32.5
2022-08-07T14:26:46.597Z,33
2022-08-07T14:27:52.710Z,33.5
2022-08-07T14:28:58.844Z,33
2022-08-07T14:30:04.990Z,34
2022-08-07T14:31:11.146Z,33.5
2022-08-07T14:32:17.244Z,34
2022-08-07T14:33:23.403Z,32.5
2022-08-07T14:34:29.567Z,32.5
2022-08-07T14:35:35.657Z,33.5
2022-08-07T14:36:41.808Z,32.5
2022-08-07T14:37:48.077Z,34
2022-08-07T14:38:53.297Z,35
2022-08-07T14:39:59.347Z,34
2022-08-07T14:41:05.433Z,34.5
2022-08-07T14:42:11.465Z,33.5
2022-08-07T14:43:17.523Z,34.5
2022-08-07T14:44:23.595Z,36
2022-08-07T14:45:29.702Z,34.5
2022-08-07T14:46:35.724Z,33.5
2022-08-07T14:47:41.779Z,34.5
2022-08-07T14:48:47.849Z,32
2022-08-07T14:49:53.928Z,30.5
2022-08-07T14:50:59.995Z,31
2022-08-07T14:52:06.055Z,32
2022-08-07T14:53:12.115Z,32
2022-08-07T14:54:18.182Z,32
2022-08-07T14:55:24.274Z,31
2022-08-07T14:56:30.323Z,29.5
2022-08-07T14:57:36.382Z,30
2022-08-07T14:58:42.472Z,31
2022-08-07T14:59:48.526Z,32
2022-08-07T15:00:54.619Z,31.5
2022-08-07T15:02:00.682Z,32
2022-08-07T15:03:06.708Z,30
2022-08-07T15:04:12.789Z,27.5
2022-08-07T15:05:18.846Z,28.5
2022-08-07T15:06:24.990Z,27
2022-08-07T15:07:31.129Z,27
2022-08-07T15:08:37.301Z,27
2022-08-07T15:09:43.402Z,26.5
2022-08-07T15:10:49.570Z,26
2022-08-07T15:11:55.725Z,26